createdAt,value
2024-02-13T00:00:01.572Z,984.5544
2024-02-13T00:01:01.717Z,984.3561
2024-02-13T00:02:01.817Z,984.3344
2024-02-13T00:03:02.115Z,984.2064
2024-02-13T00:04:02.086Z,984.326
2024-02-13T00:05:03.775Z,984.2843
2024-02-13T00:06:02.263Z,984.5894
2024-02-13T00:07:01.305Z,984.5894
2024-02-13T00:08:01.536Z,984.5544
2024-02-13T00:09:03.458Z,984.5124
2024-02-13T00:10:03.309Z,984.4703
2024-02-13T00:11:01.747Z,984.4703
2024-02-13T00:12:01.873Z,984.569
2024-02-13T00:13:01.967Z,984.5124
2024-02-13T00:14:03.669Z,984.4774
2024-02-13T00:15:03.856Z,984.527
2024-02-13T00:16:02.872Z,984.4703
2024-02-13T00:17:01.390Z,984.4353
2024-02-13T00:18:01.602Z,984.612
2024-02-13T00:19:01.656Z,984.5828
2024-02-13T00:20:01.702Z,984.5544
2024-02-13T00:21:01.806Z,984.5894
2024-02-13T00:22:01.895Z,984.534
2024-02-13T00:23:02.034Z,984.5836
2024-02-13T00:24:02.144Z,984.5553
2024-02-13T00:25:02.304Z,984.5907
2024-02-13T00:26:02.935Z,984.7041
2024-02-13T00:27:01.417Z,984.6053
2024-02-13T00:28:03.202Z,984.527
2024-02-13T00:29:01.616Z,984.662
2024-02-13T00:30:03.432Z,984.5486
2024-02-13T00:31:01.837Z,984.6053
2024-02-13T00:32:03.588Z,984.4703
2024-02-13T00:33:02.324Z,984.6315
2024-02-13T00:34:02.193Z,984.6315
2024-02-13T00:35:02.932Z,984.6944
2024-02-13T00:36:01.343Z,984.7894
2024-02-13T00:37:03.087Z,984.6944
2024-02-13T00:38:03.192Z,984.7574
2024-02-13T00:39:01.744Z,984.6944
2024-02-13T00:40:03.420Z,984.7894
2024-02-13T00:41:03.538Z,984.8461
2024-02-13T00:42:01.997Z,984.7127
2024-02-13T00:43:03.751Z,984.9295
2024-02-13T00:44:03.807Z,984.9295
2024-02-13T00:45:02.903Z,984.8011
2024-02-13T00:46:03.052Z,984.761
2024-02-13T00:47:03.203Z,984.7327
2024-02-13T00:48:01.720Z,984.676
2024-02-13T00:49:03.344Z,984.6113
2024-02-13T00:50:01.845Z,984.9253
2024-02-13T00:51:02.076Z,984.7652
2024-02-13T00:52:01.991Z,984.6517
2024-02-13T00:53:02.091Z,984.9253
2024-02-13T00:54:03.827Z,984.7835
2024-02-13T00:55:03.000Z,984.7351
2024-02-13T00:56:01.421Z,984.6771
2024-02-13T00:57:01.584Z,984.7188
2024-02-13T00:58:03.276Z,984.7855
2024-02-13T00:59:01.785Z,984.9274
2024-02-13T01:00:03.498Z,984.8289
2024-02-13T01:01:03.580Z,984.7722
2024-02-13T01:02:02.074Z,984.7538
2024-02-13T01:03:03.869Z,984.8289
2024-02-13T01:04:01.313Z,984.914
2024-02-13T01:05:03.035Z,984.8439
2024-02-13T01:06:01.518Z,984.8302
2024-02-13T01:07:01.676Z,984.8856
2024-02-13T01:08:01.699Z,984.9841
2024-02-13T01:09:01.784Z,985.0479
2024-02-13T01:10:01.848Z,984.9424
2024-02-13T01:11:02.000Z,985.0408
2024-02-13T01:12:02.120Z,984.9841
2024-02-13T01:13:03.858Z,985.0124
2024-02-13T01:14:02.896Z,985.0124
2024-02-13T01:15:03.053Z,984.9274
2024-02-13T01:16:03.127Z,984.9274
2024-02-13T01:17:01.628Z,985.1409
2024-02-13T01:18:03.480Z,984.9073
2024-02-13T01:19:03.552Z,985.1342
2024-02-13T01:20:03.585Z,985.1059
2024-02-13T01:21:02.051Z,985.206
2024-02-13T01:22:02.611Z,985.0642
2024-02-13T01:23:01.305Z,985.0074
2024-02-13T01:24:03.062Z,985.226
2024-02-13T01:25:01.511Z,985.1126
2024-02-13T01:26:01.605Z,985.2827
2024-02-13T01:27:03.349Z,985.211
2024-02-13T01:28:01.788Z,985.0967
2024-02-13T01:29:03.525Z,985.2315
2024-02-13T01:30:03.614Z,985.1251
2024-02-13T01:31:03.773Z,985.0329
2024-02-13T01:32:02.187Z,985.2582
2024-02-13T01:33:03.132Z,985.1668
2024-02-13T01:34:01.602Z,985.2882
2024-02-13T01:35:01.622Z,985.0896
2024-02-13T01:36:03.261Z,985.2669
2024-02-13T01:37:03.358Z,985.1601
2024-02-13T01:38:03.500Z,985.3166
2024-02-13T01:39:02.006Z,985.4863
2024-02-13T01:40:03.682Z,985.3111
2024-02-13T01:41:02.110Z,985.1209
2024-02-13T01:42:02.213Z,985.4028
2024-02-13T01:43:03.065Z,985.5592
2024-02-13T01:44:03.198Z,985.3123
2024-02-13T01:45:01.549Z,985.5313
2024-02-13T01:46:01.655Z,985.5313
2024-02-13T01:47:03.398Z,985.5529
2024-02-13T01:48:01.985Z,985.4891
2024-02-13T01:49:02.059Z,985.4824
2024-02-13T01:50:03.713Z,985.5108
2024-02-13T01:51:03.821Z,985.4273
2024-02-13T01:52:01.330Z,985.4557
2024-02-13T01:53:01.387Z,985.5408
2024-02-13T01:54:01.611Z,985.7676
2024-02-13T01:55:01.594Z,985.6542
2024-02-13T01:56:03.386Z,985.7676
2024-02-13T01:57:03.475Z,985.5408
2024-02-13T01:58:01.913Z,985.8294
2024-02-13T01:59:02.075Z,985.716
2024-02-13T02:00:03.791Z,985.716
2024-02-13T02:01:03.892Z,985.716
2024-02-13T02:02:01.338Z,985.7026
2024-02-13T02:03:03.087Z,985.6676
2024-02-13T02:04:01.751Z,985.8377
2024-02-13T02:05:01.639Z,985.7676
2024-02-13T02:06:03.577Z,985.7972
2024-02-13T02:07:03.568Z,985.77
2024-02-13T02:08:01.923Z,985.8633
2024-02-13T02:09:03.804Z,985.8283
2024-02-13T02:10:02.170Z,985.8283
2024-02-13T02:11:02.948Z,985.7511
2024-02-13T02:12:03.028Z,985.9295
2024-02-13T02:13:01.470Z,985.9212
2024-02-13T02:14:04.098Z,985.9149
2024-02-13T02:15:03.295Z,986.085
2024-02-13T02:16:01.805Z,985.8665
2024-02-13T02:17:01.859Z,985.9999
2024-02-13T02:18:02.091Z,985.9149
2024-02-13T02:19:02.233Z,985.9231
2024-02-13T02:20:02.201Z,985.7964
2024-02-13T02:21:01.345Z,985.9031
2024-02-13T02:22:01.390Z,986.0097
2024-02-13T02:23:01.497Z,985.9881
2024-02-13T02:24:01.653Z,985.8259
2024-02-13T02:25:01.761Z,986.0798
2024-02-13T02:26:03.459Z,985.9314
2024-02-13T02:27:01.934Z,985.9814
2024-02-13T02:28:02.004Z,985.9881
2024-02-13T02:29:02.129Z,986.301
2024-02-13T02:30:02.265Z,986.2525
2024-02-13T02:31:03.063Z,986.2887
2024-02-13T02:32:01.459Z,986.197
2024-02-13T02:33:01.739Z,986.1687
2024-02-13T02:34:01.675Z,986.2753
2024-02-13T02:35:01.859Z,986.3186
2024-02-13T02:36:01.948Z,986.1635
2024-02-13T02:37:01.992Z,986.4263
2024-02-13T02:38:03.732Z,986.2847
2024-02-13T02:39:03.951Z,986.2575
2024-02-13T02:40:02.955Z,986.3291
2024-02-13T02:41:01.411Z,986.2806
2024-02-13T02:42:01.490Z,986.2806
2024-02-13T02:43:01.611Z,986.344
2024-02-13T02:44:03.376Z,986.4088
2024-02-13T02:45:01.810Z,986.4655
2024-02-13T02:46:03.558Z,986.4253
2024-02-13T02:47:03.658Z,986.2986
2024-02-13T02:48:02.275Z,986.2986
2024-02-13T02:49:02.366Z,986.3053
2024-02-13T02:50:02.922Z,986.4901
2024-02-13T02:51:03.175Z,986.2711
2024-02-13T02:52:01.570Z,986.3426
2024-02-13T02:53:01.631Z,986.3225
2024-02-13T02:54:03.411Z,986.3009
2024-02-13T02:55:01.858Z,986.3009
2024-02-13T02:56:01.997Z,986.3493
2024-02-13T02:57:02.068Z,986.4908
2024-02-13T02:58:03.794Z,986.4625
2024-02-13T02:59:01.271Z,986.4491
2024-02-13T03:00:03.042Z,986.4074
2024-02-13T03:01:01.492Z,986.6671
2024-02-13T03:02:01.608Z,986.59
2024-02-13T03:03:03.481Z,986.6682
2024-02-13T03:04:03.467Z,986.5982
2024-02-13T03:05:01.945Z,986.6134
2024-02-13T03:06:02.190Z,986.7557
2024-02-13T03:07:03.751Z,986.6935
2024-02-13T03:08:02.184Z,986.7232
2024-02-13T03:09:02.982Z,986.8152
2024-02-13T03:10:03.041Z,986.7165
2024-02-13T03:11:01.542Z,986.6685
2024-02-13T03:12:03.262Z,986.858
2024-02-13T03:13:03.349Z,986.7165
2024-02-13T03:14:01.823Z,986.8297
2024-02-13T03:15:01.926Z,986.858
2024-02-13T03:16:02.018Z,986.9994
2024-02-13T03:17:02.148Z,986.8863
2024-02-13T03:18:04.057Z,986.9231
2024-02-13T03:19:03.103Z,986.858
2024-02-13T03:20:01.455Z,986.858
2024-02-13T03:21:01.598Z,986.6901
2024-02-13T03:22:03.287Z,986.6711
2024-02-13T03:23:03.393Z,986.9751
2024-02-13T03:24:01.896Z,986.8698
2024-02-13T03:25:04.205Z,987.1473
2024-02-13T03:26:03.694Z,986.8794
2024-02-13T03:27:03.792Z,987.0989
2024-02-13T03:28:01.283Z,986.9798
2024-02-13T03:29:01.349Z,987.03
2024-02-13T03:30:01.514Z,987.1781
2024-02-13T03:31:01.574Z,987.1657
2024-02-13T03:32:03.338Z,987.2007
2024-02-13T03:33:02.261Z,987.0166
2024-02-13T03:34:01.995Z,987.142
2024-02-13T03:35:02.029Z,987.0706
2024-02-13T03:36:03.759Z,987.1272
2024-02-13T03:37:02.224Z,987.1056
2024-02-13T03:38:02.963Z,987.2671
2024-02-13T03:39:01.373Z,987.2106
2024-02-13T03:40:03.129Z,987.2957
2024-02-13T03:41:01.633Z,987.3385
2024-02-13T03:42:01.739Z,987.0989
2024-02-13T03:43:01.795Z,987.4247
2024-02-13T03:44:01.949Z,987.2254
2024-02-13T03:45:03.655Z,987.2109
2024-02-13T03:46:03.801Z,987.1689
2024-02-13T03:47:02.257Z,987.4233
2024-02-13T03:48:01.538Z,987.3251
2024-02-13T03:49:01.550Z,987.3385
2024-02-13T03:50:03.234Z,987.3466
2024-02-13T03:51:01.685Z,987.4247
2024-02-13T03:52:01.779Z,987.4947
2024-02-13T03:53:01.862Z,987.5728
2024-02-13T03:54:01.990Z,987.4233
2024-02-13T03:55:03.724Z,987.4947
2024-02-13T03:56:03.846Z,987.4516
2024-02-13T03:57:01.329Z,987.465
2024-02-13T03:58:03.046Z,987.7468
2024-02-13T03:59:01.514Z,987.6616
2024-02-13T04:00:03.280Z,987.4368
2024-02-13T04:01:01.727Z,987.5149
2024-02-13T04:02:02.046Z,987.5647
2024-02-13T04:03:01.912Z,987.6428
2024-02-13T04:04:02.116Z,987.5163
2024-02-13T04:05:03.761Z,987.6859
2024-02-13T04:06:03.991Z,987.5095
2024-02-13T04:07:03.002Z,987.6859
2024-02-13T04:08:03.076Z,987.6304
2024-02-13T04:09:03.214Z,987.5671
2024-02-13T04:10:03.256Z,987.6802
2024-02-13T04:11:01.758Z,987.5452
2024-02-13T04:12:03.516Z,987.6509
2024-02-13T04:13:03.608Z,987.7152
2024-02-13T04:14:02.079Z,987.766
2024-02-13T04:15:02.256Z,987.7943
2024-02-13T04:16:01.269Z,987.6247
2024-02-13T04:17:01.367Z,987.6745
2024-02-13T04:18:01.564Z,987.7808
2024-02-13T04:19:03.225Z,987.726
2024-02-13T04:20:03.348Z,987.6274
2024-02-13T04:21:03.434Z,987.6274
2024-02-13T04:22:03.542Z,987.5585
2024-02-13T04:23:02.007Z,987.7213
2024-02-13T04:24:03.722Z,987.58
2024-02-13T04:25:02.250Z,987.5034
2024-02-13T04:26:01.324Z,987.8854
2024-02-13T04:27:01.411Z,987.8784
2024-02-13T04:28:01.547Z,987.6312
2024-02-13T04:29:03.285Z,987.8649
2024-02-13T04:30:01.809Z,987.7815
2024-02-13T04:31:01.823Z,987.7476
2024-02-13T04:32:03.610Z,987.8336
2024-02-13T04:33:03.792Z,987.8696
2024-02-13T04:34:02.431Z,987.7083
2024-02-13T04:35:02.211Z,987.6884
2024-02-13T04:36:01.328Z,987.7953
2024-02-13T04:37:03.073Z,987.7967
2024-02-13T04:38:03.144Z,987.8545
2024-02-13T04:39:01.629Z,987.8827
2024-02-13T04:40:01.785Z,988.0663
2024-02-13T04:41:01.869Z,988.0324
2024-02-13T04:42:01.943Z,988.0548
2024-02-13T04:43:02.087Z,987.985
2024-02-13T04:44:03.897Z,988.0709
2024-02-13T04:45:01.307Z,987.9524
2024-02-13T04:46:01.369Z,988.045
2024-02-13T04:47:01.490Z,987.9752
2024-02-13T04:48:01.721Z,988.1928
2024-02-13T04:49:03.438Z,987.9752
2024-02-13T04:50:01.794Z,987.9671
2024-02-13T04:51:03.576Z,987.9245
2024-02-13T04:52:02.005Z,988.1219
2024-02-13T04:53:03.777Z,988.045
2024-02-13T04:54:02.189Z,987.9752
2024-02-13T04:55:01.305Z,988.1431
2024-02-13T04:56:01.435Z,988.1498
2024-02-13T04:57:03.159Z,988.1229
2024-02-13T04:58:01.639Z,988.0675
2024-02-13T04:59:03.393Z,988.0393
2024-02-13T05:00:03.454Z,988.1803
2024-02-13T05:01:01.965Z,988.0409
2024-02-13T05:02:02.029Z,988.2098
2024-02-13T05:03:03.787Z,988.0973
2024-02-13T05:04:03.967Z,988.2383
2024-02-13T05:05:02.994Z,988.1409
2024-02-13T05:06:03.329Z,988.0792
2024-02-13T05:07:03.199Z,988.158
2024-02-13T05:08:01.673Z,988.2076
2024-02-13T05:09:01.822Z,988.3033
2024-02-13T05:10:03.513Z,988.3824
2024-02-13T05:11:01.965Z,988.3408
2024-02-13T05:12:02.128Z,988.225
2024-02-13T05:13:02.203Z,988.2394
2024-02-13T05:14:01.406Z,988.226
2024-02-13T05:15:02.999Z,988.0864
2024-02-13T05:16:01.491Z,988.4423
2024-02-13T05:17:03.196Z,988.2417
2024-02-13T05:18:01.838Z,988.5979
2024-02-13T05:19:03.535Z,988.3725
2024-02-13T05:20:03.512Z,988.4445
2024-02-13T05:21:03.661Z,988.3264
2024-02-13T05:22:02.844Z,988.545
2024-02-13T05:23:02.210Z,988.2925
2024-02-13T05:24:03.032Z,988.4052
2024-02-13T05:25:03.052Z,988.2634
2024-02-13T05:26:01.470Z,988.3197
2024-02-13T05:27:01.635Z,988.4109
2024-02-13T05:28:03.370Z,988.2768
2024-02-13T05:29:01.802Z,988.2912
2024-02-13T05:30:03.557Z,988.313
2024-02-13T05:31:02.015Z,988.3344
2024-02-13T05:32:02.106Z,988.3344
2024-02-13T05:33:03.989Z,988.3984
2024-02-13T05:34:01.482Z,988.5616
2024-02-13T05:35:01.446Z,988.4288
2024-02-13T05:36:01.576Z,988.3738
2024-02-13T05:37:01.652Z,988.7263
2024-02-13T05:38:01.758Z,988.5293
2024-02-13T05:39:01.864Z,988.7263
2024-02-13T05:40:03.593Z,988.6914
2024-02-13T05:41:02.083Z,988.6217
2024-02-13T05:42:03.966Z,988.5798
2024-02-13T05:43:02.999Z,988.6012
2024-02-13T05:44:03.013Z,988.5673
2024-02-13T05:45:01.483Z,988.8487
2024-02-13T05:46:03.246Z,988.8138
2024-02-13T05:47:01.704Z,988.7013
2024-02-13T05:48:03.559Z,988.8138
2024-02-13T05:49:03.606Z,988.8138
2024-02-13T05:50:03.650Z,988.5887
2024-02-13T05:51:02.126Z,988.5887
2024-02-13T05:52:03.899Z,988.645
2024-02-13T05:53:02.968Z,988.645
2024-02-13T05:54:03.182Z,988.7013
2024-02-13T05:55:01.523Z,988.8138
2024-02-13T05:56:01.668Z,988.5618
2024-02-13T05:57:03.517Z,988.6673
2024-02-13T05:58:03.505Z,988.6673
2024-02-13T05:59:02.013Z,988.5349
2024-02-13T06:00:03.803Z,988.7741
2024-02-13T06:01:02.309Z,988.7395
2024-02-13T06:03:01.378Z,988.7328
2024-02-13T06:04:01.497Z,988.8946
2024-02-13T06:05:03.204Z,988.7686
2024-02-13T06:06:01.905Z,988.8316
2024-02-13T06:07:03.556Z,988.7338
2024-02-13T06:08:01.864Z,988.742
2024-02-13T06:09:03.715Z,988.7139
2024-02-13T06:10:02.095Z,988.9817
2024-02-13T06:11:03.819Z,988.813
2024-02-13T06:12:03.050Z,988.8692
2024-02-13T06:13:03.143Z,988.9469
2024-02-13T06:14:03.138Z,988.813
2024-02-13T06:15:01.695Z,988.8197
2024-02-13T06:16:01.754Z,988.9588
2024-02-13T06:17:01.834Z,988.9025
2024-02-13T06:18:03.660Z,988.8744
2024-02-13T06:19:02.278Z,988.967
2024-02-13T06:20:02.158Z,988.8478
2024-02-13T06:21:02.315Z,988.9817
2024-02-13T06:22:01.360Z,988.8772
2024-02-13T06:23:01.463Z,988.8209
2024-02-13T06:24:01.751Z,988.8915
2024-02-13T06:25:03.265Z,988.8845
2024-02-13T06:26:03.414Z,989.1223
2024-02-13T06:27:03.089Z,989.0942
2024-02-13T06:28:03.764Z,989.0233
2024-02-13T06:29:02.082Z,989.0233
2024-02-13T06:30:03.970Z,989.0233
2024-02-13T06:31:01.281Z,989.1276
2024-02-13T06:32:01.420Z,988.8463
2024-02-13T06:33:01.734Z,989.0704
2024-02-13T06:34:01.806Z,989.1053
2024-02-13T06:35:01.745Z,989.0634
2024-02-13T06:36:03.533Z,989.1961
2024-02-13T06:37:03.516Z,989.2641
2024-02-13T06:38:03.708Z,989.2923
2024-02-13T06:39:03.814Z,989.236
2024-02-13T06:40:01.260Z,989.2078
2024-02-13T06:41:01.371Z,989.3834
2024-02-13T06:42:05.509Z,989.3969
2024-02-13T06:43:01.575Z,989.2981
2024-02-13T06:44:03.365Z,989.2486
2024-02-13T06:45:02.007Z,989.4233
2024-02-13T06:46:03.561Z,989.3242
2024-02-13T06:47:02.002Z,989.4638
2024-02-13T06:48:03.823Z,989.2386
2024-02-13T06:49:02.511Z,989.4908
2024-02-13T06:50:01.476Z,989.279
2024-02-13T06:51:01.743Z,989.279
2024-02-13T06:52:01.516Z,989.4046
2024-02-13T06:53:01.606Z,989.3764
2024-02-13T06:54:03.490Z,989.3336
2024-02-13T06:55:03.519Z,989.4034
2024-02-13T06:56:03.578Z,989.5014
2024-02-13T06:57:02.068Z,989.4733
2024-02-13T06:58:03.785Z,989.3808
2024-02-13T06:59:02.256Z,989.4733
2024-02-13T07:00:05.248Z,989.5228
2024-02-13T07:01:01.576Z,989.4178
2024-02-13T07:02:01.599Z,989.4257
2024-02-13T07:03:03.352Z,989.4122
2024-02-13T07:04:03.485Z,989.4404
2024-02-13T07:05:03.514Z,989.3782
2024-02-13T07:06:02.284Z,989.6598
2024-02-13T07:07:13.754Z,989.5767
2024-02-13T07:08:02.226Z,989.6263
2024-02-13T07:09:03.219Z,989.5494
2024-02-13T07:10:01.548Z,989.5922
2024-02-13T07:11:01.474Z,989.6485
2024-02-13T07:12:03.265Z,989.6204
2024-02-13T07:13:03.391Z,989.7095
2024-02-13T07:14:03.495Z,989.6204
2024-02-13T07:15:02.006Z,989.7793
2024-02-13T07:16:02.061Z,989.5998
2024-02-13T07:17:02.171Z,989.6069
2024-02-13T07:18:02.413Z,989.5154
2024-02-13T07:19:01.448Z,989.5359
2024-02-13T07:20:03.098Z,989.628
2024-02-13T07:21:07.737Z,989.5019
2024-02-13T07:22:01.679Z,989.7024
2024-02-13T07:23:01.806Z,989.723
2024-02-13T07:24:03.614Z,989.5641
2024-02-13T07:25:03.624Z,989.6688
2024-02-13T07:26:03.802Z,989.6125
2024-02-13T07:27:04.133Z,989.6465
2024-02-13T07:28:02.942Z,989.7559
2024-02-13T07:29:03.038Z,989.6776
2024-02-13T07:30:01.575Z,989.7965
2024-02-13T07:31:01.625Z,989.8452
2024-02-13T07:32:01.713Z,989.7742
2024-02-13T07:33:01.881Z,989.622
2024-02-13T07:34:02.102Z,989.9489
2024-02-13T07:35:03.660Z,990.0247
2024-02-13T07:36:02.341Z,989.7148
2024-02-13T07:37:02.246Z,989.8266
2024-02-13T07:38:03.017Z,989.8965
2024-02-13T07:39:03.093Z,989.6521
2024-02-13T07:40:03.195Z,989.7534
2024-02-13T07:41:01.648Z,989.8653
2024-02-13T07:42:03.390Z,989.7943
2024-02-13T07:43:01.866Z,989.7585
2024-02-13T07:44:03.651Z,989.7224
2024-02-13T07:45:02.407Z,989.7923
2024-02-13T07:46:02.180Z,989.7638
2024-02-13T07:47:02.935Z,989.8622
2024-02-13T07:48:03.233Z,989.763
2024-02-13T07:49:03.229Z,989.9604
2024-02-13T07:50:01.647Z,989.9742
2024-02-13T07:51:01.779Z,989.7348
2024-02-13T07:52:03.491Z,989.904
2024-02-13T07:53:03.571Z,989.8194
2024-02-13T07:54:02.127Z,989.8614
2024-02-13T07:55:03.777Z,989.8194
2024-02-13T07:56:02.234Z,989.8964
2024-02-13T07:57:03.005Z,989.7692
2024-02-13T07:58:01.480Z,989.9088
2024-02-13T07:59:01.547Z,990.0216
2024-02-13T08:00:01.728Z,989.937
2024-02-13T08:01:01.829Z,990.049
2024-02-13T08:02:01.862Z,989.9429
2024-02-13T08:03:02.038Z,989.8504
2024-02-13T08:04:02.149Z,990.0191
2024-02-13T08:05:02.192Z,989.9196
2024-02-13T08:06:01.389Z,990.1228
2024-02-13T08:07:01.386Z,989.9806
2024-02-13T08:08:03.155Z,989.8739
2024-02-13T08:09:03.222Z,989.8728
2024-02-13T08:10:01.719Z,990.0052
2024-02-13T08:11:03.444Z,989.9262
2024-02-13T08:12:03.540Z,990.1648
2024-02-13T08:13:02.041Z,990.044
2024-02-13T08:14:02.141Z,990.1062
2024-02-13T08:15:02.306Z,989.9642
2024-02-13T08:16:01.306Z,990.1192
2024-02-13T08:17:01.477Z,989.8933
2024-02-13T08:18:03.197Z,990.1814
2024-02-13T08:19:03.368Z,990.1385
2024-02-13T08:20:03.381Z,990.2021
2024-02-13T08:21:01.979Z,990.1035
2024-02-13T08:22:01.941Z,990.2097
2024-02-13T08:23:02.070Z,990.0899
2024-02-13T08:24:03.825Z,989.9565
2024-02-13T08:25:02.942Z,990.1825
2024-02-13T08:26:01.385Z,990.0413
2024-02-13T08:27:03.128Z,990.2808
2024-02-13T08:28:03.240Z,990.21
2024-02-13T08:29:03.334Z,990.1035
2024-02-13T08:30:03.569Z,990.2371
2024-02-13T08:31:03.518Z,990.0744
2024-02-13T08:32:01.993Z,990.1027
2024-02-13T08:33:04.020Z,990.1377
2024-02-13T08:34:02.457Z,990.2429
2024-02-13T08:35:01.451Z,990.2274
2024-02-13T08:36:01.476Z,990.1633
2024-02-13T08:37:01.606Z,990.325
2024-02-13T08:38:03.293Z,990.2878
2024-02-13T08:39:03.357Z,990.166
2024-02-13T08:40:03.463Z,990.3123
2024-02-13T08:41:01.957Z,990.1913
2024-02-13T08:42:02.135Z,990.3251
2024-02-13T08:43:02.208Z,990.3445
2024-02-13T08:44:01.537Z,990.2381
2024-02-13T08:45:03.088Z,990.3083
2024-02-13T08:46:01.506Z,990.1943
2024-02-13T08:47:01.563Z,990.4128
2024-02-13T08:48:03.476Z,990.243
2024-02-13T08:49:03.705Z,990.2627
2024-02-13T08:50:03.750Z,990.1691
2024-02-13T08:51:03.735Z,990.556
2024-02-13T08:52:02.113Z,990.266
2024-02-13T08:53:02.278Z,990.2502
2024-02-13T08:54:03.000Z,990.3069
2024-02-13T08:55:01.447Z,990.2219
2024-02-13T08:56:03.216Z,990.1222
2024-02-13T08:57:03.345Z,990.171
2024-02-13T08:58:01.746Z,990.3047
2024-02-13T08:59:01.910Z,990.3461
2024-02-13T09:00:02.006Z,990.3802
2024-02-13T09:01:02.127Z,990.4067
2024-02-13T09:02:03.843Z,990.3629
2024-02-13T09:03:01.356Z,990.5078
2024-02-13T09:04:01.428Z,990.3523
2024-02-13T09:05:03.335Z,990.2962
2024-02-13T09:06:01.662Z,990.3823
2024-02-13T09:07:03.364Z,990.5157
2024-02-13T09:08:01.816Z,990.4726
2024-02-13T09:09:01.959Z,990.2894
2024-02-13T09:10:03.677Z,990.3384
2024-02-13T09:11:02.098Z,990.2741
2024-02-13T09:12:02.304Z,990.3229
2024-02-13T09:13:01.369Z,990.3101
2024-02-13T09:14:01.511Z,990.3177
2024-02-13T09:15:01.593Z,990.3668
2024-02-13T09:16:03.294Z,990.5078
2024-02-13T09:17:03.366Z,990.5078
2024-02-13T09:18:01.983Z,990.5852
2024-02-13T09:19:03.670Z,990.6627
2024-02-13T09:20:03.669Z,990.3933
2024-02-13T09:21:02.205Z,990.512
2024-02-13T09:22:02.902Z,990.2935
2024-02-13T09:23:03.025Z,990.3366
2024-02-13T09:24:03.218Z,990.5472
2024-02-13T09:25:01.575Z,990.5325
2024-02-13T09:26:01.670Z,990.5041
2024-02-13T09:27:01.937Z,990.3846
2024-02-13T09:28:01.918Z,990.3211
2024-02-13T09:29:03.678Z,990.4266
2024-02-13T09:30:03.822Z,990.481
2024-02-13T09:31:03.870Z,990.4734
2024-02-13T09:32:01.300Z,990.4397
2024-02-13T09:33:01.535Z,990.48
2024-02-13T09:34:01.612Z,990.5787
2024-02-13T09:35:03.397Z,990.6276
2024-02-13T09:36:03.439Z,990.5924
2024-02-13T09:37:01.843Z,990.6639
2024-02-13T09:38:03.595Z,990.5357
2024-02-13T09:39:02.148Z,990.5296
2024-02-13T09:40:02.190Z,990.3882
2024-02-13T09:41:02.885Z,990.415
2024-02-13T09:42:01.374Z,990.6334
2024-02-13T09:43:03.095Z,990.4771
2024-02-13T09:44:03.202Z,990.5123
2024-02-13T09:45:03.386Z,990.6037
2024-02-13T09:46:01.812Z,990.7094
2024-02-13T09:47:03.515Z,990.496
2024-02-13T09:48:02.085Z,990.6017
2024-02-13T09:49:02.194Z,990.5089
2024-02-13T09:50:02.294Z,990.3372
2024-02-13T09:51:03.074Z,990.7537
2024-02-13T09:52:01.410Z,990.738
2024-02-13T09:53:03.188Z,990.7948
2024-02-13T09:54:03.297Z,990.88
2024-02-13T09:55:03.386Z,990.583
2024-02-13T09:56:01.877Z,990.6127
2024-02-13T09:57:02.099Z,990.826
2024-02-13T09:58:02.027Z,990.967
2024-02-13T09:59:03.775Z,990.8516
2024-02-13T10:00:02.310Z,990.807
2024-02-13T10:01:02.019Z,991.0343
2024-02-13T10:02:03.081Z,990.8285
2024-02-13T10:03:01.624Z,990.9084
2024-02-13T10:04:03.457Z,990.6588
2024-02-13T10:05:01.758Z,990.6502
2024-02-13T10:06:02.063Z,990.7638
2024-02-13T10:07:02.012Z,990.8364
2024-02-13T10:08:02.051Z,990.8638
2024-02-13T10:09:02.344Z,990.7364
2024-02-13T10:10:02.910Z,990.8156
2024-02-13T10:11:03.247Z,990.9429
2024-02-13T10:12:01.583Z,991.0059
2024-02-13T10:13:01.568Z,990.9429
2024-02-13T10:14:01.725Z,990.8493
2024-02-13T10:15:01.901Z,990.8199
2024-02-13T10:16:01.912Z,990.8415
2024-02-13T10:17:02.013Z,990.8346
2024-02-13T10:18:02.294Z,990.7052
2024-02-13T10:19:02.463Z,990.9181
2024-02-13T10:20:03.049Z,990.9597
2024-02-13T10:21:01.501Z,990.8153
2024-02-13T10:22:01.548Z,990.9334
2024-02-13T10:23:01.767Z,991.0393
2024-02-13T10:24:01.909Z,991.0393
2024-02-13T10:25:01.865Z,990.9687
2024-02-13T10:26:01.959Z,990.8049
2024-02-13T10:27:02.204Z,990.6548
2024-02-13T10:28:02.237Z,990.654
2024-02-13T10:29:01.298Z,990.7247
2024-02-13T10:30:03.162Z,990.7394
2024-02-13T10:31:03.140Z,991.0393
2024-02-13T10:32:01.583Z,990.7747
2024-02-13T10:33:03.423Z,990.6322
2024-02-13T10:34:03.474Z,990.6815
2024-02-13T10:35:01.918Z,990.6322
2024-02-13T10:36:03.739Z,990.7257
2024-02-13T10:37:02.152Z,990.7607
2024-02-13T10:38:02.222Z,990.5255
2024-02-13T10:39:02.990Z,990.8029
2024-02-13T10:40:01.476Z,990.6685
2024-02-13T10:41:03.174Z,990.6027
2024-02-13T10:42:01.776Z,990.7165
2024-02-13T10:43:01.731Z,990.638
2024-02-13T10:44:03.487Z,990.8288
2024-02-13T10:45:03.715Z,990.6217
2024-02-13T10:46:03.723Z,990.7493
2024-02-13T10:47:02.189Z,990.8623
2024-02-13T10:48:01.342Z,990.8054
2024-02-13T10:49:01.406Z,990.7838
2024-02-13T10:50:03.162Z,990.6958
2024-02-13T10:51:03.311Z,990.692
2024-02-13T10:52:01.692Z,990.7421
2024-02-13T10:53:01.796Z,990.735
2024-02-13T10:54:03.559Z,990.7441
2024-02-13T10:55:03.654Z,990.6358
2024-02-13T10:56:02.100Z,990.6643
2024-02-13T10:57:04.061Z,990.6434
2024-02-13T10:58:03.426Z,990.6065
2024-02-13T10:59:03.172Z,990.7194
2024-02-13T11:00:01.794Z,990.7395
2024-02-13T11:01:01.806Z,990.578
2024-02-13T11:02:02.474Z,990.737
2024-02-13T11:03:03.528Z,990.6173
2024-02-13T11:04:01.992Z,990.6036
2024-02-13T11:05:02.216Z,990.7881
2024-02-13T11:06:02.305Z,990.6742
2024-02-13T11:07:02.981Z,990.7121
2024-02-13T11:08:01.364Z,990.719
2024-02-13T11:09:01.681Z,990.5835
2024-02-13T11:10:01.585Z,990.6188
2024-02-13T11:11:03.313Z,990.6188
2024-02-13T11:12:02.036Z,990.6036
2024-02-13T11:13:01.968Z,990.4897
2024-02-13T11:14:03.792Z,990.7088
2024-02-13T11:15:03.825Z,990.5625
2024-02-13T11:16:03.876Z,990.591
2024-02-13T11:17:02.954Z,990.5002
2024-02-13T11:18:03.132Z,990.635
2024-02-13T11:19:03.319Z,990.4354
2024-02-13T11:20:01.958Z,990.5686
2024-02-13T11:21:03.671Z,990.4354
2024-02-13T11:22:01.901Z,990.5419
2024-02-13T11:23:03.741Z,990.4994
2024-02-13T11:24:03.816Z,990.5485
2024-02-13T11:25:02.198Z,990.6322
2024-02-13T11:26:01.318Z,990.5812
2024-02-13T11:27:12.972Z,990.5243
2024-02-13T11:28:03.117Z,990.6876
2024-02-13T11:29:01.573Z,990.6354
2024-02-13T11:30:02.563Z,990.5834
2024-02-13T11:31:03.423Z,990.6093
2024-02-13T11:32:03.546Z,990.6378
2024-02-13T11:33:02.130Z,990.579
2024-02-13T11:34:02.240Z,990.758
2024-02-13T11:35:04.043Z,990.6093
2024-02-13T11:36:02.963Z,990.6267
2024-02-13T11:37:03.038Z,990.613
2024-02-13T11:38:03.137Z,990.6061
2024-02-13T11:39:03.265Z,990.6288
2024-02-13T11:40:03.314Z,990.6649
2024-02-13T11:41:03.471Z,990.8016
2024-02-13T11:42:01.998Z,990.6176
2024-02-13T11:43:02.026Z,990.7395
2024-02-13T11:44:02.113Z,990.6825
2024-02-13T11:45:03.968Z,990.6314
2024-02-13T11:46:01.352Z,990.7446
2024-02-13T11:47:01.488Z,990.7369
2024-02-13T11:48:01.785Z,990.5736